Terminal Aerodrome Forecast
Issued by NWS

Home | Current Version | Previous Version | Text Only | Print | Product List | Glossary On
Versions: 1 2 3 4 5 6 7 8 9 10 11 12 13 14 15
715
FTUS46 KSEW 180942 AAB
TAFPAE
TAF AMD
KPAE 180942Z 1810/1906 18018G30KT 2SM +SHRA SCT018 BKN025 OVC035
     FM181200 18020G30KT P6SM -SHRA SCT020 BKN045 OVC070=

USA.gov is the U.S. government's official web portal to all federal, state and local government web resources and services.